createdAt,value
2019-01-24T00:00:42.791Z,44.23
2019-01-24T00:03:11.668Z,43.10
2019-01-24T00:05:40.119Z,54.37
2019-01-24T00:08:08.659Z,44.93
2019-01-24T00:10:37.129Z,48.77
2019-01-24T00:13:08.279Z,47.00
2019-01-24T00:15:36.694Z,45.20
2019-01-24T00:18:05.475Z,42.17
2019-01-24T00:20:33.904Z,45.37
2019-01-24T00:23:02.352Z,47.87
2019-01-24T00:25:30.760Z,55.57
2019-01-24T00:27:59.259Z,47.23
2019-01-24T00:30:27.713Z,39.90
2019-01-24T00:32:56.148Z,48.43
2019-01-24T00:35:24.576Z,50.80
2019-01-24T00:37:53.028Z,47.53
2019-01-24T00:40:22.194Z,49.50
2019-01-24T00:42:50.699Z,50.80
2019-01-24T00:45:19.588Z,48.20
2019-01-24T00:47:48.113Z,44.43
2019-01-24T00:50:16.968Z,50.27
2019-01-24T00:52:45.763Z,45.33
2019-01-24T00:55:15.825Z,43.33
2019-01-24T00:57:44.734Z,45.97
2019-01-24T01:00:18.846Z,47.23
2019-01-24T01:02:47.343Z,48.07
2019-01-24T01:05:15.917Z,52.07
2019-01-24T01:07:44.576Z,47.93
2019-01-24T01:10:48.981Z,44.20
2019-01-24T01:13:17.438Z,51.30
2019-01-24T01:15:46.001Z,43.67
2019-01-24T01:18:14.596Z,48.00
2019-01-24T01:20:43.045Z,45.67
2019-01-24T01:23:11.549Z,49.53
2019-01-24T01:25:39.997Z,41.97
2019-01-24T01:28:08.494Z,45.27
2019-01-24T01:30:38.455Z,44.90
2019-01-24T01:33:06.953Z,57.80
2019-01-24T01:35:35.383Z,55.83
2019-01-24T01:38:04.024Z,42.80
2019-01-24T01:40:32.437Z,52.07
2019-01-24T01:43:00.965Z,47.50
2019-01-24T01:45:29.493Z,43.20
2019-01-24T01:47:57.970Z,44.13
2019-01-24T01:50:26.429Z,48.47
2019-01-24T01:52:54.854Z,49.37
2019-01-24T01:55:23.942Z,47.40
2019-01-24T01:57:52.399Z,50.93
2019-01-24T02:00:25.249Z,54.10
2019-01-24T02:02:53.762Z,49.07
2019-01-24T02:05:22.205Z,49.83
2019-01-24T02:07:52.516Z,51.37
2019-01-24T02:10:23.818Z,49.00
2019-01-24T02:12:52.777Z,49.73
2019-01-24T02:15:21.737Z,45.80
2019-01-24T02:17:50.339Z,47.20
2019-01-24T02:20:20.617Z,47.80
2019-01-24T02:22:49.391Z,48.13
2019-01-24T02:25:17.995Z,46.10
2019-01-24T02:27:48.014Z,51.00
2019-01-24T02:30:25.093Z,43.83
2019-01-24T02:32:53.627Z,44.93
2019-01-24T02:35:23.742Z,54.97
2019-01-24T02:37:52.263Z,54.10
2019-01-24T02:40:21.133Z,43.70
2019-01-24T02:42:49.727Z,54.53
2019-01-24T02:45:25.388Z,61.03
2019-01-24T02:47:54.292Z,55.83
2019-01-24T02:50:23.749Z,51.50
2019-01-24T02:52:52.259Z,52.60
2019-01-24T02:55:20.767Z,52.60
2019-01-24T02:57:49.184Z,49.57
2019-01-24T03:00:23.584Z,52.83
2019-01-24T03:02:52.300Z,58.40
2019-01-24T03:05:23.039Z,53.10
2019-01-24T03:07:52.026Z,51.07
2019-01-24T03:10:20.604Z,48.70
2019-01-24T03:12:49.182Z,51.37
2019-01-24T03:15:22.282Z,53.27
2019-01-24T03:17:51.326Z,52.77
2019-01-24T03:20:20.025Z,52.33
2019-01-24T03:22:48.799Z,54.53
2019-01-24T03:25:19.122Z,52.40
2019-01-24T03:27:47.637Z,51.03
2019-01-24T03:30:20.840Z,53.47
2019-01-24T03:32:49.686Z,52.93
2019-01-24T03:35:20.778Z,54.73
2019-01-24T03:37:49.219Z,45.80
2019-01-24T03:40:17.821Z,52.90
2019-01-24T03:42:46.417Z,48.43
2019-01-24T03:45:16.719Z,52.97
2019-01-24T03:47:45.316Z,44.93
2019-01-24T03:50:18.225Z,52.03
2019-01-24T03:52:46.810Z,50.97
2019-01-24T03:55:17.099Z,52.23
2019-01-24T03:57:45.531Z,49.33
2019-01-24T04:00:16.510Z,49.97
2019-01-24T04:02:45.022Z,55.27
2019-01-24T04:05:15.285Z,48.43
2019-01-24T04:07:43.778Z,50.87
2019-01-24T04:10:19.929Z,52.17
2019-01-24T04:12:48.418Z,54.37
2019-01-24T04:15:19.994Z,50.60
2019-01-24T04:17:48.465Z,50.23
2019-01-24T04:20:17.278Z,45.13
2019-01-24T04:22:45.776Z,53.30
2019-01-24T04:25:14.407Z,53.77
2019-01-24T04:27:42.927Z,47.77
2019-01-24T04:30:14.373Z,54.80
2019-01-24T04:32:42.828Z,48.23
2019-01-24T04:35:19.384Z,57.00
2019-01-24T04:37:42.133Z,53.30
2019-01-24T04:40:16.013Z,53.00
2019-01-24T04:42:46.118Z,57.37
2019-01-24T04:45:16.023Z,46.40
2019-01-24T04:47:44.605Z,50.27
2019-01-24T04:50:15.015Z,54.40
2019-01-24T04:52:44.226Z,50.70
2019-01-24T04:55:16.590Z,44.57
2019-01-24T04:57:46.642Z,54.20
2019-01-24T05:00:26.735Z,53.00
2019-01-24T05:02:55.432Z,51.93
2019-01-24T05:05:27.814Z,53.87
2019-01-24T05:07:55.222Z,53.43
2019-01-24T05:10:23.801Z,50.27
2019-01-24T05:12:52.240Z,52.67
2019-01-24T05:15:20.910Z,48.20
2019-01-24T05:17:49.328Z,49.47
2019-01-24T05:20:17.817Z,56.57
2019-01-24T05:22:46.270Z,59.00
2019-01-24T05:25:17.423Z,57.83
2019-01-24T05:27:45.849Z,50.43
2019-01-24T05:30:20.149Z,57.37
2019-01-24T05:32:48.593Z,53.20
2019-01-24T05:35:17.215Z,49.60
2019-01-24T05:37:45.748Z,48.23
2019-01-24T05:40:14.302Z,59.33
2019-01-24T05:42:43.700Z,56.03
2019-01-24T05:45:13.771Z,56.93
2019-01-24T05:47:42.310Z,50.50
2019-01-24T05:50:11.999Z,56.93
2019-01-24T05:52:40.498Z,54.07
2019-01-24T05:55:10.807Z,60.03
2019-01-24T05:57:39.229Z,53.67
2019-01-24T06:00:10.842Z,54.60
2019-01-24T06:02:39.283Z,54.73
2019-01-24T06:05:09.743Z,55.20
2019-01-24T06:07:38.209Z,49.77
2019-01-24T06:10:09.707Z,52.00
2019-01-24T06:12:38.130Z,52.10
2019-01-24T06:15:09.601Z,56.80
2019-01-24T06:17:38.025Z,58.57
2019-01-24T06:20:08.736Z,52.30
2019-01-24T06:22:37.215Z,52.27
2019-01-24T06:25:08.528Z,55.70
2019-01-24T06:27:37.070Z,56.17
2019-01-24T06:30:08.609Z,49.00
2019-01-24T06:32:37.029Z,57.60
2019-01-24T06:35:05.888Z,48.07
2019-01-24T06:37:34.349Z,51.87
2019-01-24T06:40:03.533Z,54.90
2019-01-24T06:42:31.969Z,49.30
2019-01-24T06:45:00.416Z,58.33
2019-01-24T06:47:28.919Z,55.87
2019-01-24T06:49:57.351Z,56.23
2019-01-24T06:52:25.795Z,63.10
2019-01-24T06:54:54.213Z,52.73
2019-01-24T06:57:22.623Z,60.20
2019-01-24T06:59:51.051Z,55.10
2019-01-24T07:02:19.465Z,57.47
2019-01-24T07:04:47.985Z,59.23
2019-01-24T07:07:17.979Z,52.30
2019-01-24T07:09:46.427Z,55.80
2019-01-24T07:12:15.688Z,51.67
2019-01-24T07:14:44.110Z,56.77
2019-01-24T07:17:12.618Z,53.50
2019-01-24T07:19:41.045Z,49.40
2019-01-24T07:22:09.484Z,58.00
2019-01-24T07:24:37.942Z,51.40
2019-01-24T07:27:06.438Z,53.27
2019-01-24T07:29:34.879Z,53.70
2019-01-24T07:32:03.301Z,60.30
2019-01-24T07:34:31.738Z,58.93
2019-01-24T07:37:00.221Z,51.73
2019-01-24T07:39:28.665Z,50.90
2019-01-24T07:41:57.077Z,53.27
2019-01-24T07:44:25.522Z,49.17
2019-01-24T07:46:53.934Z,54.73
2019-01-24T07:49:22.365Z,50.47
2019-01-24T07:51:50.811Z,58.50
2019-01-24T07:54:19.236Z,55.70
2019-01-24T07:56:47.655Z,56.03
2019-01-24T07:59:16.084Z,54.07
2019-01-24T08:01:44.522Z,50.87
2019-01-24T08:04:12.960Z,51.70
2019-01-24T08:06:41.397Z,56.73
2019-01-24T08:09:09.813Z,54.10
2019-01-24T08:11:38.259Z,46.20
2019-01-24T08:14:06.688Z,56.17
2019-01-24T08:16:35.121Z,49.17
2019-01-24T08:19:03.541Z,54.83
2019-01-24T08:21:32.083Z,58.87
2019-01-24T08:24:00.498Z,48.37
2019-01-24T08:26:28.904Z,53.87
2019-01-24T08:28:57.342Z,52.77
2019-01-24T08:31:25.757Z,60.70
2019-01-24T08:33:54.196Z,46.37
2019-01-24T08:36:22.634Z,48.20
2019-01-24T08:38:51.079Z,53.30
2019-01-24T08:41:21.156Z,50.63
2019-01-24T08:43:49.568Z,52.30
2019-01-24T08:46:17.998Z,51.67
2019-01-24T08:48:46.413Z,48.67
2019-01-24T08:51:14.848Z,52.20
2019-01-24T08:53:43.519Z,50.73
2019-01-24T08:56:11.960Z,56.27
2019-01-24T08:58:40.397Z,49.90
2019-01-24T09:01:08.845Z,50.97
2019-01-24T09:03:37.280Z,53.93
2019-01-24T09:06:06.226Z,46.20
2019-01-24T09:08:34.662Z,49.70
2019-01-24T09:11:03.095Z,48.20
2019-01-24T09:13:31.517Z,49.17
2019-01-24T09:15:59.949Z,47.90
2019-01-24T09:18:28.389Z,51.50
2019-01-24T09:20:56.964Z,50.97
2019-01-24T09:23:25.456Z,53.33
2019-01-24T09:25:53.856Z,49.83
2019-01-24T09:28:22.294Z,52.50
2019-01-24T09:30:50.705Z,49.37
2019-01-24T09:33:19.149Z,43.93
2019-01-24T09:35:47.637Z,60.40
2019-01-24T09:38:16.077Z,51.47
2019-01-24T09:40:44.514Z,45.33
2019-01-24T09:43:12.949Z,50.60
2019-01-24T09:45:41.392Z,50.63
2019-01-24T09:48:10.052Z,50.07
2019-01-24T09:50:38.490Z,55.43
2019-01-24T09:53:06.985Z,48.90
2019-01-24T09:55:35.430Z,51.17
2019-01-24T09:58:04.187Z,55.47
2019-01-24T10:00:36.919Z,46.80
2019-01-24T10:03:05.798Z,47.07
2019-01-24T10:05:34.251Z,46.90
2019-01-24T10:08:02.902Z,48.70
2019-01-24T10:10:32.877Z,48.30
2019-01-24T10:13:01.288Z,49.93
2019-01-24T10:15:29.820Z,43.83
2019-01-24T10:17:58.827Z,45.40
2019-01-24T10:20:28.026Z,45.17
2019-01-24T10:22:56.531Z,43.30
2019-01-24T10:25:30.335Z,42.57
2019-01-24T10:27:58.790Z,46.27
2019-01-24T10:30:27.461Z,49.20
2019-01-24T10:32:56.257Z,47.50
2019-01-24T10:35:25.523Z,42.03
2019-01-24T10:37:54.200Z,48.33
2019-01-24T10:40:25.266Z,45.83
2019-01-24T10:42:53.773Z,41.03
2019-01-24T10:45:22.471Z,45.17
2019-01-24T10:47:52.663Z,43.43
2019-01-24T10:50:23.166Z,46.03
2019-01-24T10:52:51.585Z,46.07
2019-01-24T10:55:21.970Z,50.97
2019-01-24T10:57:53.253Z,49.60
2019-01-24T11:00:27.130Z,50.50
2019-01-24T11:02:55.564Z,48.33
2019-01-24T11:05:24.070Z,53.40
2019-01-24T11:07:52.485Z,53.80
2019-01-24T11:10:22.546Z,47.07
2019-01-24T11:12:51.147Z,50.30
2019-01-24T11:15:22.209Z,48.53
2019-01-24T11:17:50.964Z,51.70
2019-01-24T11:20:20.644Z,51.90
2019-01-24T11:22:50.603Z,50.17
2019-01-24T11:25:24.209Z,45.03
2019-01-24T11:27:52.703Z,43.63
2019-01-24T11:30:23.261Z,62.37
2019-01-24T11:32:57.518Z,51.70
2019-01-24T11:35:28.822Z,48.23
2019-01-24T11:37:57.270Z,49.77
2019-01-24T11:40:25.877Z,53.77
2019-01-24T11:42:54.607Z,54.50
2019-01-24T11:45:29.821Z,53.87
2019-01-24T11:47:58.364Z,47.10
2019-01-24T11:50:26.801Z,46.17
2019-01-24T11:52:55.319Z,52.57
2019-01-24T11:55:23.755Z,43.80
2019-01-24T11:57:52.281Z,46.33
2019-01-24T12:00:31.065Z,46.07
2019-01-24T12:02:59.604Z,44.07
2019-01-24T12:05:28.460Z,45.33
2019-01-24T12:07:56.995Z,51.53
2019-01-24T12:10:27.357Z,48.40
2019-01-24T12:12:55.811Z,48.63
2019-01-24T12:15:26.831Z,50.63
2019-01-24T12:17:55.277Z,47.70
2019-01-24T12:20:25.153Z,53.10
2019-01-24T12:22:53.925Z,51.77
2019-01-24T12:25:22.619Z,50.70
2019-01-24T12:27:51.126Z,46.80
2019-01-24T12:30:22.249Z,49.23
2019-01-24T12:32:50.773Z,47.00
2019-01-24T12:35:19.333Z,43.60
2019-01-24T12:37:47.753Z,47.80
2019-01-24T12:40:16.257Z,41.97
2019-01-24T12:42:44.765Z,46.00
2019-01-24T12:45:18.714Z,45.77
2019-01-24T12:47:47.118Z,43.53
2019-01-24T12:50:17.762Z,43.93
2019-01-24T12:52:50.898Z,50.67
2019-01-24T12:55:19.589Z,44.80
2019-01-24T12:57:48.025Z,50.10
2019-01-24T13:00:24.968Z,50.30
2019-01-24T13:02:53.570Z,50.23
2019-01-24T13:05:22.094Z,48.50
2019-01-24T13:07:50.537Z,48.80
2019-01-24T13:10:24.377Z,45.27
2019-01-24T13:12:53.130Z,42.77
2019-01-24T13:15:30.042Z,49.87
2019-01-24T13:17:58.498Z,46.57
2019-01-24T13:20:26.922Z,44.67
2019-01-24T13:22:55.461Z,43.13
2019-01-24T13:25:26.406Z,46.17
2019-01-24T13:27:54.861Z,52.27
2019-01-24T13:30:25.907Z,45.37
2019-01-24T13:32:54.391Z,49.30
2019-01-24T13:35:22.897Z,49.03
2019-01-24T13:37:51.455Z,47.33
2019-01-24T13:40:21.943Z,50.17
2019-01-24T13:42:50.507Z,48.97
2019-01-24T13:45:22.315Z,55.03
2019-01-24T13:47:50.842Z,43.87
2019-01-24T13:50:19.628Z,39.80
2019-01-24T13:52:48.173Z,54.30
2019-01-24T13:55:18.115Z,49.57
2019-01-24T13:57:46.641Z,46.53
2019-01-24T14:00:18.136Z,49.37
2019-01-24T14:02:48.232Z,47.97
2019-01-24T14:05:18.741Z,46.50
2019-01-24T14:07:47.196Z,50.03
2019-01-24T14:10:17.673Z,48.20
2019-01-24T14:12:46.472Z,48.70
2019-01-24T14:15:17.607Z,49.77
2019-01-24T14:17:46.118Z,47.93
2019-01-24T14:20:18.358Z,46.33
2019-01-24T14:22:47.430Z,50.27
2019-01-24T14:25:20.790Z,45.13
2019-01-24T14:27:49.296Z,49.17
2019-01-24T14:30:23.325Z,46.03
2019-01-24T14:32:52.007Z,50.03
2019-01-24T14:35:21.261Z,45.90
2019-01-24T14:37:50.023Z,43.80
2019-01-24T14:40:18.874Z,48.33
2019-01-24T14:42:47.398Z,51.33
2019-01-24T14:45:21.285Z,44.20
2019-01-24T14:47:49.763Z,28.87
2019-01-24T14:50:26.173Z,46.97
2019-01-24T14:52:54.753Z,44.67
2019-01-24T14:55:23.514Z,51.33
2019-01-24T14:57:52.056Z,49.33
2019-01-24T15:00:31.921Z,46.03
2019-01-24T15:03:00.563Z,42.60
2019-01-24T15:05:29.258Z,50.33
2019-01-24T15:07:57.767Z,46.43
2019-01-24T15:10:26.537Z,43.67
2019-01-24T15:12:55.051Z,45.27
2019-01-24T15:15:27.418Z,49.50
2019-01-24T15:17:55.939Z,49.70
2019-01-24T15:20:24.529Z,58.87
2019-01-24T15:22:53.250Z,49.10
2019-01-24T15:25:23.603Z,53.27
2019-01-24T15:27:52.037Z,50.67
2019-01-24T15:30:28.134Z,55.30
2019-01-24T15:32:56.796Z,49.83
2019-01-24T15:35:25.486Z,48.50
2019-01-24T15:37:54.560Z,54.57
2019-01-24T15:40:28.734Z,51.70
2019-01-24T15:42:57.978Z,48.93
2019-01-24T15:45:26.619Z,47.07
2019-01-24T15:47:55.193Z,48.73
2019-01-24T15:50:25.059Z,53.87
2019-01-24T15:52:53.846Z,49.70
2019-01-24T15:55:22.545Z,62.77
2019-01-24T15:57:51.052Z,52.23
2019-01-24T16:00:25.270Z,51.77
2019-01-24T16:02:54.836Z,49.00
2019-01-24T16:05:23.440Z,52.17
2019-01-24T16:07:52.167Z,53.30
2019-01-24T16:10:24.197Z,51.37
2019-01-24T16:12:55.775Z,47.97
2019-01-24T16:15:32.413Z,50.83
2019-01-24T16:18:00.994Z,45.20
2019-01-24T16:20:30.455Z,50.00
2019-01-24T16:22:59.265Z,47.57
2019-01-24T16:25:32.720Z,45.13
2019-01-24T16:28:01.215Z,49.40
2019-01-24T16:30:31.595Z,43.43
2019-01-24T16:33:00.474Z,48.97
2019-01-24T16:35:29.641Z,49.87
2019-01-24T16:37:58.144Z,54.20
2019-01-24T16:40:28.432Z,49.60
2019-01-24T16:42:56.975Z,56.10
2019-01-24T16:45:27.094Z,43.63
2019-01-24T16:47:55.699Z,44.10
2019-01-24T16:50:25.562Z,55.67
2019-01-24T16:52:54.097Z,47.60
2019-01-24T16:55:22.807Z,53.23
2019-01-24T16:57:52.209Z,50.07
2019-01-24T17:00:29.342Z,47.47
2019-01-24T17:02:57.777Z,47.27
2019-01-24T17:05:26.229Z,50.80
2019-01-24T17:07:54.757Z,47.87
2019-01-24T17:10:25.523Z,48.07
2019-01-24T17:12:54.601Z,48.93
2019-01-24T17:15:28.736Z,42.73
2019-01-24T17:17:59.685Z,46.73
2019-01-24T17:20:30.414Z,45.83
2019-01-24T17:22:59.519Z,41.70
2019-01-24T17:25:32.750Z,46.07
2019-01-24T17:28:01.247Z,41.00
2019-01-24T17:30:35.032Z,46.30
2019-01-24T17:33:05.315Z,43.90
2019-01-24T17:35:33.822Z,49.23
2019-01-24T17:38:02.262Z,40.67
2019-01-24T17:40:32.716Z,45.93
2019-01-24T17:43:01.413Z,41.83
2019-01-24T17:45:32.065Z,48.17
2019-01-24T17:48:00.974Z,47.27
2019-01-24T17:50:29.590Z,54.40
2019-01-24T17:52:58.040Z,43.27
2019-01-24T17:55:29.018Z,48.50
2019-01-24T17:57:57.619Z,49.23
2019-01-24T18:00:27.761Z,48.60
2019-01-24T18:02:56.769Z,50.87
2019-01-24T18:05:25.322Z,46.23
2019-01-24T18:07:53.863Z,44.80
2019-01-24T18:10:24.547Z,48.30
2019-01-24T18:12:53.082Z,50.90
2019-01-24T18:15:23.863Z,45.80
2019-01-24T18:17:52.554Z,46.27
2019-01-24T18:20:34.891Z,51.73
2019-01-24T18:23:03.986Z,48.07
2019-01-24T18:25:32.434Z,46.17
2019-01-24T18:28:00.894Z,40.77
2019-01-24T18:30:29.986Z,48.20
2019-01-24T18:32:58.498Z,52.47
2019-01-24T18:35:27.094Z,43.30
2019-01-24T18:38:08.727Z,51.13
2019-01-24T18:40:37.909Z,46.33
2019-01-24T18:43:09.389Z,43.53
2019-01-24T18:45:49.543Z,42.20
2019-01-24T18:48:18.104Z,44.83
2019-01-24T18:50:46.878Z,48.93
2019-01-24T18:53:16.872Z,44.67
2019-01-24T18:55:47.018Z,51.50
2019-01-24T18:58:15.743Z,46.83
2019-01-24T19:00:45.768Z,41.63
2019-01-24T19:03:14.648Z,54.43
2019-01-24T19:05:43.556Z,46.43
2019-01-24T19:08:12.105Z,49.63
2019-01-24T19:10:41.301Z,45.37
2019-01-24T19:13:09.896Z,40.93
2019-01-24T19:15:38.574Z,43.07
2019-01-24T19:18:07.918Z,44.50
2019-01-24T19:20:37.978Z,47.77
2019-01-24T19:23:06.671Z,45.80
2019-01-24T19:25:35.163Z,43.30
2019-01-24T19:28:03.818Z,48.43
2019-01-24T19:30:33.412Z,47.23
2019-01-24T19:33:01.976Z,55.70
2019-01-24T19:35:31.093Z,46.33
2019-01-24T19:37:59.719Z,46.23
2019-01-24T19:40:30.085Z,53.80
2019-01-24T19:42:58.605Z,45.33
2019-01-24T19:45:27.972Z,44.37
2019-01-24T19:47:56.749Z,44.90
2019-01-24T19:50:27.414Z,52.50
2019-01-24T19:52:55.900Z,48.50
2019-01-24T19:55:24.477Z,45.80
2019-01-24T19:57:53.661Z,47.30
2019-01-24T20:00:27.001Z,43.97
2019-01-24T20:02:55.697Z,50.97
2019-01-24T20:05:24.789Z,47.60
2019-01-24T20:07:53.565Z,42.97
2019-01-24T20:10:29.479Z,43.13
2019-01-24T20:12:58.256Z,37.50
2019-01-24T20:15:31.411Z,45.43
2019-01-24T20:18:00.580Z,39.07
2019-01-24T20:20:29.178Z,46.90
2019-01-24T20:22:57.658Z,49.33
2019-01-24T20:25:30.517Z,46.17
2019-01-24T20:27:59.002Z,36.23
2019-01-24T20:30:29.299Z,37.80
2019-01-24T20:32:58.596Z,36.30
2019-01-24T20:35:29.824Z,36.00
2019-01-24T20:37:58.390Z,38.33
2019-01-24T20:40:28.349Z,41.63
2019-01-24T20:42:56.794Z,39.60
2019-01-24T20:45:25.427Z,38.03
2019-01-24T20:47:53.849Z,43.17
2019-01-24T20:50:22.281Z,34.20
2019-01-24T20:52:50.708Z,38.57
2019-01-24T20:55:19.205Z,39.40
2019-01-24T20:57:47.672Z,36.97
2019-01-24T21:00:21.298Z,40.77
2019-01-24T21:02:49.981Z,39.17
2019-01-24T21:05:20.837Z,34.43
2019-01-24T21:07:49.357Z,40.77
2019-01-24T21:10:19.928Z,31.53
2019-01-24T21:12:48.433Z,31.53
2019-01-24T21:15:18.697Z,39.13
2019-01-24T21:20:42.284Z,34.30
2019-01-24T21:23:23.749Z,38.90
2019-01-24T21:26:04.767Z,37.00
2019-01-24T21:28:47.624Z,36.97
2019-01-24T21:31:28.412Z,37.47
2019-01-24T21:34:09.238Z,30.93
2019-01-24T21:36:50.152Z,36.27
2019-01-24T21:39:30.903Z,32.23
2019-01-24T21:42:13.163Z,38.67
2019-01-24T21:44:41.633Z,39.57
2019-01-24T21:47:29.639Z,37.40
2019-01-24T21:50:11.010Z,36.70
2019-01-24T21:52:51.424Z,35.23
2019-01-24T21:55:31.962Z,34.53
2019-01-24T21:58:14.391Z,33.10
2019-01-24T22:00:55.414Z,36.67
2019-01-24T22:03:36.653Z,33.70
2019-01-24T22:06:17.905Z,38.63
2019-01-24T22:08:58.391Z,33.60
2019-01-24T22:11:39.597Z,31.67
2019-01-24T22:14:20.941Z,33.77
2019-01-24T22:17:01.965Z,35.50
2019-01-24T22:19:43.116Z,37.47
2019-01-24T22:22:23.998Z,38.47
2019-01-24T22:25:04.569Z,38.27
2019-01-24T22:27:45.030Z,35.63
2019-01-24T22:30:26.256Z,33.70
2019-01-24T22:33:08.136Z,40.37
2019-01-24T22:35:49.232Z,36.17
2019-01-24T22:38:29.857Z,33.50
2019-01-24T22:40:58.478Z,38.33
2019-01-24T22:43:46.677Z,34.93
2019-01-24T22:49:35.899Z,30.20
2019-01-24T22:52:16.620Z,33.27
2019-01-24T22:54:57.420Z,40.53
2019-01-24T22:57:38.181Z,37.83
2019-01-24T23:00:20.549Z,33.97
2019-01-24T23:03:01.328Z,35.73
2019-01-24T23:05:42.423Z,33.70
2019-01-24T23:08:25.547Z,30.63
2019-01-24T23:11:06.462Z,38.60
2019-01-24T23:13:47.021Z,34.47
2019-01-24T23:16:27.702Z,34.90
2019-01-24T23:19:08.025Z,45.43
2019-01-24T23:21:49.640Z,31.20
2019-01-24T23:24:32.061Z,32.30
2019-01-24T23:27:12.787Z,38.50
2019-01-24T23:29:54.082Z,36.43
2019-01-24T23:32:22.493Z,34.63
2019-01-24T23:35:10.573Z,31.63
2019-01-24T23:37:52.416Z,33.47
2019-01-24T23:40:33.400Z,34.73
2019-01-24T23:43:14.214Z,36.67
2019-01-24T23:48:38.755Z,30.33
2019-01-24T23:51:19.965Z,37.77
2019-01-24T23:54:01.202Z,34.50
2019-01-24T23:56:42.140Z,35.13
2019-01-24T23:59:23.284Z,34.33
